Flight Track Log - Related Links

Times and Time Zones

All times are in EDT time to prevent confusion due to time zone crossing. See the GJS3707 flight status page for this flight to view local times or setup timezone preferences in your user account.

Time Position Orientation Groundspeed Altitude Reporting Facility
EDT Latitude Longitude Course Direction KTS MPH feet Rate Location/Type
Mon 11:18:13 AM 41.9333 -87.9167 261° West 170 196 1,700  Level Chicago TRACON
Mon 11:19:07 AM 41.9000 -87.9500 217° Southwest 205 236 3,200 1,947 Climbing Chicago TRACON
Mon 11:20:00 AM 41.9251 -88.3745 255° West  Level FlightAware Approximate
Mon 11:20:07 AM 41.8500 -88.0167 225° Southwest 251 289 5,400  Level Chicago TRACON
Mon 11:20:26 AM 41.8419 -88.0281 226° Southwest 233 268 6,100 2,296 Climbing Chicago Center
Mon 11:21:00 AM 41.9088 -88.5339 261° West  Level FlightAware Approximate
Mon 11:21:28 AM 41.8136 -88.1133 246° West 259 298 8,500  Level Chicago Center
Mon 11:22:00 AM 41.8900 -88.6936 261° West  Level FlightAware Approximate
Mon 11:22:30 AM 41.8164 -88.2094 272° West 260 299 10,600  Level Chicago Center
Mon 11:23:00 AM 41.8716 -88.8533 261° West  Level FlightAware Approximate
Mon 11:23:32 AM 41.8211 -88.3131 274° West 277 319 12,400  Level Chicago Center
Mon 11:24:34 AM 41.8317 -88.4486 276° West 304 350 14,700 1,887 Climbing Chicago Center
Mon 11:25:36 AM 41.8289 -88.5708 268° West 329 379 16,300 1,463 Climbing Chicago Center
Mon 11:26:37 AM 41.8261 -88.6981 268° West 340 391 17,700 1,463 Climbing Chicago Center
Mon 11:27:39 AM 41.8225 -88.8281 268° West 350 403 19,300 1,548 Climbing Chicago Center
Mon 11:28:41 AM 41.8197 -88.9619 268° West 360 414 20,900 1,597 Climbing Chicago Center
Mon 11:29:43 AM 41.8178 -89.1231 269° West 363 418 22,600 1,452 Climbing Chicago Center
Mon 11:30:45 AM 41.8142 -89.2619 268° West 373 429 23,900 1,161 Climbing Chicago Center
Mon 11:31:47 AM 41.8119 -89.4028 269° West 378 435 25,000 1,065 Climbing Chicago Center
Mon 11:32:49 AM 41.8100 -89.5464 269° West 387 445 26,100 1,065 Climbing Chicago Center
Mon 11:33:51 AM 41.8064 -89.6931 268° West 394 453 27,200 1,161 Climbing Chicago Center
Mon 11:34:53 AM 41.8033 -89.8683 269° West 395 455 28,500 968 Climbing Chicago Center
Mon 11:35:55 AM 41.8011 -89.9911 269° West 398 458 29,200 634 Climbing Chicago Center
Mon 11:36:56 AM 41.7981 -90.1514 269° West 406 467 29,800 683 Climbing Chicago Center
Mon 11:37:58 AM 41.7911 -90.3417 267° West 429 494 30,600 677 Climbing Chicago Center
Mon 11:39:00 AM 41.7878 -90.5003 268° West 429 494 31,200 532 Climbing Chicago Center
Mon 11:40:02 AM 41.7833 -90.6481 268° West 430 495 31,700 484 Climbing Chicago Center
Mon 11:41:04 AM 41.7792 -90.8092 268° West 435 501 32,200 532 Climbing Chicago Center
Mon 11:42:06 AM 41.7722 -91.0067 267° West 442 509 32,800 581 Climbing Chicago Center
Mon 11:43:08 AM 41.7675 -91.1694 268° West 441 507 33,400 581 Climbing Chicago Center
Mon 11:44:10 AM 41.7614 -91.3328 267° West 442 509 34,000 290 Climbing Chicago Center
Mon 11:45:12 AM 41.7561 -91.4967 268° West 442 509 34,000  Level Chicago Center
Mon 11:46:14 AM 41.7506 -91.6603 267° West 441 507 34,000  Level Chicago Center
Mon 11:47:16 AM 41.7439 -91.8225 267° West 440 506 34,000  Level Chicago Center
Mon 11:48:18 AM 41.7364 -92.0178 267° West 440 506 34,000  Level Chicago Center
Mon 11:49:20 AM 41.7303 -92.1808 267° West 443 510 34,000  Level Chicago Center
Mon 11:50:22 AM 41.7225 -92.3436 266° West 443 510 34,000  Level Chicago Center
Mon 11:51:24 AM 41.7153 -92.5064 267° West 441 507 34,000  Level Chicago Center
Mon 11:52:26 AM 41.7078 -92.6686 267° West 441 507 34,000  Level Chicago Center
Mon 11:52:49 AM 41.7044 -92.7364 266° West 443 510 34,000  Level Minneapolis Center
Mon 11:53:50 AM 41.6969 -92.9169 267° West 445 512 34,000  Level Minneapolis Center
Mon 11:54:52 AM 41.6886 -93.0800 266° West 444 511 34,000  Level Minneapolis Center
Mon 11:55:54 AM 41.6806 -93.2447 266° West 447 514 34,000  Level Minneapolis Center
Mon 11:56:56 AM 41.6725 -93.4081 266° West 446 513 34,000  Level Minneapolis Center
Mon 11:57:58 AM 41.6631 -93.5997 266° West 438 504 34,000  Level Minneapolis Center
Mon 11:58:59 AM 41.6550 -93.7639 266° West 443 510 34,000  Level Minneapolis Center
Mon 12:00:01 PM 41.6450 -93.9292 265° West 448 516 34,000  Level Minneapolis Center
Mon 12:01:03 PM 41.6358 -94.0931 266° West 447 514 34,000  Level Minneapolis Center
Mon 12:02:05 PM 41.6219 -94.2864 265° West 452 520 34,000  Level Minneapolis Center
Mon 12:03:06 PM 41.6119 -94.4528 265° West 450 518 34,000  Level Minneapolis Center
Mon 12:04:08 PM 41.6017 -94.6183 265° West 448 516 34,000  Level Minneapolis Center
Mon 12:05:22 PM 41.5911 -94.7858 265° West 451 519 34,000  Level Minneapolis Center
Mon 12:06:24 PM 41.5778 -94.9831 265° West 446 513 34,000  Level Minneapolis Center
Mon 12:07:26 PM 41.5675 -95.1486 265° West 448 516 34,000  Level Minneapolis Center
Mon 12:08:27 PM 41.5536 -95.3508 265° West 454 522 34,000  Level Minneapolis Center
Mon 12:09:29 PM 41.5417 -95.5169 265° West 454 522 34,000  Level Minneapolis Center
Mon 12:10:31 PM 41.5314 -95.6658 265° West 456 525 34,000  Level Minneapolis Center
Mon 12:11:32 PM 41.5167 -95.8669 264° West 453 521 34,000  Level Minneapolis Center
Mon 12:12:34 PM 41.5044 -96.0342 264° West 453 521 34,000  Level Minneapolis Center
Mon 12:13:36 PM 41.4919 -96.2017 264° West 454 522 34,000  Level Minneapolis Center
Mon 12:14:38 PM 41.4781 -96.3758 264° West 451 519 34,000  Level Minneapolis Center
Mon 12:15:39 PM 41.4647 -96.5433 264° West 456 525 34,000  Level Minneapolis Center
Mon 12:16:41 PM 41.4500 -96.7097 263° West 453 521 34,000  Level Minneapolis Center
Mon 12:17:43 PM 41.4367 -96.8764 264° West 455 524 34,000  Level Minneapolis Center
Mon 12:18:45 PM 41.4239 -97.0425 264° West 452 520 34,000  Level Minneapolis Center
Mon 12:19:47 PM 41.4086 -97.2100 263° West 455 524 34,000  Level Minneapolis Center
Mon 12:20:48 PM 41.3925 -97.4069 264° West 448 516 34,000 -49 Level Minneapolis Center
Mon 12:21:50 PM 41.3769 -97.5728 263° West 451 519 33,900  Descending Minneapolis Center
Mon 12:22:52 PM 41.3619 -97.7381 263° West 451 519 34,000 48 Climbing Minneapolis Center
Mon 12:23:54 PM 41.3475 -97.9028 263° West 448 516 34,000  Level Minneapolis Center
Mon 12:24:56 PM 41.3317 -98.0683 263° West 450 518 34,000  Level Minneapolis Center
Mon 12:25:57 PM 41.3172 -98.2289 263° West 450 518 34,000  Level Minneapolis Center
Mon 12:26:59 PM 41.2983 -98.4269 263° West 450 518 34,000  Level Minneapolis Center
Mon 12:28:13 PM 41.2817 -98.5950 263° West 449 517 34,000  Level Minneapolis Center
Mon 12:29:15 PM 41.2636 -98.7939 263° West 452 520 34,000  Level Minneapolis Center
Mon 12:30:29 PM 41.2469 -98.9617 263° West 458 527 34,000  Level Minneapolis Center
Mon 12:31:00 PM 41.2364 -99.0528 261° West 453 521 34,000  Level Denver Center
Mon 12:32:03 PM 41.2167 -99.2414 262° West 451 519 34,000  Level Denver Center
Mon 12:33:05 PM 41.1992 -99.4069 262° West 454 522 34,000  Level Denver Center
Mon 12:34:07 PM 41.1781 -99.6061 262° West 452 520 34,000  Level Denver Center
Mon 12:35:09 PM 41.1600 -99.7644 261° West 453 521 34,000  Level Denver Center
Mon 12:36:11 PM 41.1408 -99.9494 262° West 454 522 34,000  Level Denver Center
Mon 12:37:13 PM 41.1225 -100.1092 261° West 457 526 34,000  Level Denver Center
Mon 12:38:15 PM 41.1058 -100.2664 262° West 454 522 34,000  Level Denver Center
Mon 12:39:17 PM 41.1147 -100.4503 274° West 449 517 34,000  Level Denver Center
Mon 12:40:19 PM 41.1272 -100.6333 275° West 451 519 34,000  Level Denver Center
Mon 12:41:21 PM 41.1364 -100.7903 274° West 451 519 34,000  Level Denver Center
Mon 12:42:23 PM 41.1467 -100.9739 274° West 453 521 34,000  Level Denver Center
Mon 12:43:25 PM 41.1558 -101.1294 275° West 451 519 34,000  Level Denver Center
Mon 12:44:28 PM 41.1672 -101.3128 275° West 450 518 34,000  Level Denver Center
Mon 12:45:30 PM 41.1761 -101.4706 274° West 450 518 34,000  Level Denver Center
Mon 12:46:32 PM 41.1864 -101.6558 274° West 452 520 34,000  Level Denver Center
Mon 12:47:34 PM 41.1953 -101.8136 274° West 450 518 34,000  Level Denver Center
Mon 12:48:36 PM 41.2050 -101.9989 274° West 451 519 34,000  Level Denver Center
Mon 12:49:38 PM 41.2128 -102.1589 274° West 454 522 34,000  Level Denver Center
Mon 12:50:40 PM 41.2219 -102.3181 274° West 452 520 34,000  Level Denver Center
Mon 12:51:42 PM 41.2297 -102.5053 273° West 453 521 34,000  Level Denver Center
Mon 12:52:44 PM 41.2375 -102.6883 273° West 454 522 34,000  Level Denver Center
Mon 12:53:46 PM 41.2433 -102.8494 273° West 456 525 34,000  Level Denver Center
Mon 12:54:48 PM 41.2525 -103.0086 274° West 452 520 34,000  Level Denver Center
Mon 12:55:50 PM 41.2592 -103.1961 273° West 453 521 34,000  Level Denver Center
Mon 12:56:52 PM 41.2656 -103.3575 273° West 455 524 34,000  Level Denver Center
Mon 12:57:54 PM 41.2733 -103.5442 273° West 454 522 34,000  Level Denver Center
Mon 12:58:56 PM 41.2794 -103.7056 273° West 455 524 34,000  Level Denver Center
Mon 12:59:58 PM 41.2867 -103.8922 273° West 453 521 34,000  Level Denver Center
Mon 01:01:00 PM 41.2925 -104.0531 273° West 453 521 34,000  Level Denver Center
Mon 01:02:02 PM 41.2986 -104.2411 273° West 455 524 34,000  Level Denver Center
Mon 01:03:04 PM 41.3028 -104.3733 272° West 452 520 34,000  Level Denver Center
Mon 01:04:06 PM 41.3097 -104.5900 273° West 456 525 34,000  Level Denver Center
Mon 01:05:08 PM 41.3136 -104.7506 272° West 455 524 34,000  Level Denver Center
Mon 01:06:10 PM 41.3172 -104.8822 272° West 451 519 34,000  Level Denver Center
Mon 01:07:12 PM 41.3225 -105.0978 272° West 454 522 34,000  Level Denver Center
Mon 01:08:14 PM 41.3272 -105.2589 272° West 455 524 34,000  Level Denver Center
Mon 01:09:16 PM 41.3319 -105.4464 272° West 454 522 34,000  Level Denver Center
Mon 01:10:18 PM 41.3347 -105.6083 271° West 456 525 34,000  Level Denver Center
Mon 01:11:20 PM 41.3619 -105.7897 281° West 450 518 34,000  Level Denver Center
Mon 01:12:23 PM 41.4017 -105.9417 289° West 450 518 34,000  Level Denver Center
Mon 01:13:25 PM 41.4483 -106.1189 289° West 454 522 34,000  Level Denver Center
Mon 01:14:27 PM 41.4869 -106.2717 289° West 454 522 34,000 48 Level Denver Center
Mon 01:15:29 PM 41.5331 -106.4483 289° West 450 518 34,100  Climbing Denver Center
Mon 01:16:31 PM 41.5725 -106.5972 290° West 453 521 34,000 -49 Descending Denver Center
Mon 01:17:32 PM 41.6053 -106.7250 289° West 455 524 34,000  Level Denver Center
Mon 01:18:35 PM 41.6569 -106.9272 289° West 452 520 34,000  Level Denver Center
Mon 01:19:37 PM 41.7014 -107.1050 289° West 453 521 34,000  Level Denver Center
Mon 01:20:39 PM 41.7400 -107.2578 289° West 452 520 34,000  Level Denver Center
Mon 01:21:53 PM 41.7842 -107.4358 288° West 452 520 34,000  Level Denver Center
Mon 01:22:55 PM 41.8294 -107.6139 289° West 454 522 34,000  Level Denver Center
Mon 01:23:57 PM 41.8717 -107.7911 288° West 449 517 34,000  Level Denver Center
Mon 01:24:25 PM 41.8908 -107.8675 289° West 450 518 34,000  Level Salt Lake Center
Mon 01:25:27 PM 41.9264 -108.0192 288° West 446 513 34,000  Level Salt Lake Center
Mon 01:26:29 PM 41.9706 -108.1983 288° West 453 521 34,000  Level Salt Lake Center
Mon 01:27:31 PM 42.0064 -108.3494 288° West 448 516 34,000  Level Salt Lake Center
Mon 01:28:32 PM 42.0478 -108.5256 288° West 445 512 34,000  Level Salt Lake Center
Mon 01:29:34 PM 42.0831 -108.6767 288° West 443 510 34,000  Level Salt Lake Center
Mon 01:30:36 PM 42.1186 -108.8281 288° West 445 512 34,000  Level Salt Lake Center
Mon 01:31:37 PM 42.1594 -109.0047 287° West 445 512 34,000  Level Salt Lake Center
Mon 01:32:39 PM 42.1947 -109.1569 287° West 445 512 34,000  Level Salt Lake Center
Mon 01:33:41 PM 42.2344 -109.3361 287° West 448 516 34,000  Level Salt Lake Center
Mon 01:34:43 PM 42.2692 -109.4878 287° West 445 512 34,000  Level Salt Lake Center
Mon 01:35:44 PM 42.3094 -109.6658 287° West 446 513 34,000  Level Salt Lake Center
Mon 01:36:46 PM 42.3428 -109.8200 286° West 447 514 34,000  Level Salt Lake Center
Mon 01:37:48 PM 42.3825 -109.9978 287° West 445 512 34,000  Level Salt Lake Center
Mon 01:38:50 PM 42.4158 -110.1500 287° West 444 511 34,000  Level Salt Lake Center
Mon 01:39:51 PM 42.4561 -110.3294 287° West 446 513 34,000 49 Level Salt Lake Center
Mon 01:40:53 PM 42.4886 -110.4842 286° West 448 516 34,100  Climbing Salt Lake Center
Mon 01:41:55 PM 42.5217 -110.6386 286° West 447 514 34,000 -48 Descending Salt Lake Center
Mon 01:42:57 PM 42.5606 -110.8175 286° West 444 511 34,000  Level Salt Lake Center
Mon 01:43:59 PM 42.5947 -110.9764 286° West 443 510 34,000  Level Salt Lake Center
Mon 01:45:00 PM 42.6275 -111.1367 286° West 443 510 34,000  Level Salt Lake Center
Mon 01:46:02 PM 42.6611 -111.2972 286° West 444 511 34,000  Level Salt Lake Center
Mon 01:47:04 PM 42.7008 -111.4897 286° West 444 511 34,000  Level Salt Lake Center
Mon 01:48:06 PM 42.7331 -111.6436 286° West 441 507 34,000  Level Salt Lake Center
Mon 01:49:08 PM 42.7644 -111.7978 286° West 441 507 34,000  Level Salt Lake Center
Mon 01:50:10 PM 42.8003 -111.9783 285° West 441 507 34,000  Level Salt Lake Center
Mon 01:51:12 PM 42.8314 -112.1350 285° West 446 513 34,000  Level Salt Lake Center
Mon 01:52:14 PM 42.8681 -112.3133 286° West 439 505 34,000  Level Salt Lake Center
Mon 01:53:16 PM 42.8972 -112.4661 285° West 436 502 34,000  Level Salt Lake Center
Mon 01:54:17 PM 42.9322 -112.6447 285° West 436 502 34,000  Level Salt Lake Center
Mon 01:55:19 PM 42.9622 -112.7972 285° West 435 501 34,000  Level Salt Lake Center
Mon 01:56:21 PM 42.9964 -112.9747 285° West 434 499 34,000  Level Salt Lake Center
Mon 01:57:23 PM 43.0244 -113.1253 284° West 429 494 34,000  Level Salt Lake Center
Mon 01:58:25 PM 43.0539 -113.2792 285° West 433 498 34,000  Level Salt Lake Center
Mon 01:59:27 PM 43.0875 -113.4564 285° West 432 497 34,000  Level Salt Lake Center
Mon 02:00:29 PM 43.1158 -113.6100 284° West 434 499 34,000  Level Salt Lake Center
Mon 02:01:31 PM 43.1481 -113.7878 284° West 432 497 34,000  Level Salt Lake Center
Mon 02:02:33 PM 43.1750 -113.9444 283° West 439 505 34,000  Level Salt Lake Center
Mon 02:03:35 PM 43.2064 -114.1114 285° West 436 502 34,000 -1,065 Level Salt Lake Center
Mon 02:04:37 PM 43.2392 -114.2914 284° West 439 505 31,800 -2,177 Descending Salt Lake Center
Mon 02:05:39 PM 43.2669 -114.4469 284° West 440 506 29,500 -2,371 Descending Salt Lake Center
Mon 02:06:41 PM 43.2925 -114.5942 283° West 418 481 26,900 -2,806 Descending Salt Lake Center
Mon 02:07:43 PM 43.3206 -114.7564 283° West 393 452 23,700 -2,855 Descending Salt Lake Center
Mon 02:08:45 PM 43.3444 -114.8900 284° West 380 437 21,000 -2,878 Descending Salt Lake Center
Mon 02:09:46 PM 43.3711 -115.0478 283° West 378 435 17,800 -2,927 Descending Salt Lake Center
Mon 02:10:48 PM 43.3939 -115.1819 283° West 353 406 15,000 -2,323 Descending Salt Lake Center
Mon 02:11:50 PM 43.4156 -115.3136 283° West 341 392 13,000 -1,258 Descending Salt Lake Center
Mon 02:12:52 PM 43.4331 -115.4208 283° West 305 351 12,400 -726 Descending Salt Lake Center
Mon 02:13:54 PM 43.4531 -115.5394 283° West 305 351 11,500 -1,065 Descending Salt Lake Center
Mon 02:14:56 PM 43.4656 -115.6511 279° West 284 327 10,200 -1,306 Descending Salt Lake Center
Mon 02:15:58 PM 43.4672 -115.7617 271° West 278 320 8,800 -1,355 Descending Salt Lake Center
Mon 02:17:00 PM 43.4664 -115.8700 269° West 273 314 7,400 -1,161 Descending Salt Lake Center
Mon 02:18:02 PM 43.4872 -115.9728 286° West 265 305 6,400 -1,016 Descending Salt Lake Center
Mon 02:19:04 PM 43.5083 -116.0700 287° West 256 295 5,300 -1,122 Descending Salt Lake Center
Mon 02:20:05 PM 43.5336 -116.1419 296° West 221 254 4,100 -780 Descending Salt Lake Center
Mon 02:21:07 PM 43.5536 -116.1983 296° West 200 230 3,700 -387 Descending Salt Lake Center

Login

Don't have an account? Register now (free) for customized features, flight alerts, and more!